sensor_id;sensor_type;location;lat;lon;timestamp;temperature;humidity
19496;DHT22;9888;48.606;9.630;2023-04-07T00:00:37;4.80;99.90
19496;DHT22;9888;48.606;9.630;2023-04-07T00:03:05;4.80;99.90
19496;DHT22;9888;48.606;9.630;2023-04-07T00:05:33;4.70;99.90
19496;DHT22;9888;48.606;9.630;2023-04-07T00:08:00;4.70;99.90
19496;DHT22;9888;48.606;9.630;2023-04-07T00:10:27;4.70;99.90
19496;DHT22;9888;48.606;9.630;2023-04-07T00:12:54;4.60;99.90
19496;DHT22;9888;48.606;9.630;2023-04-07T00:15:21;4.60;99.90
19496;DHT22;9888;48.606;9.630;2023-04-07T00:17:48;4.50;99.90
19496;DHT22;9888;48.606;9.630;2023-04-07T00:20:15;4.50;99.90
19496;DHT22;9888;48.606;9.630;2023-04-07T00:22:42;4.50;99.90
19496;DHT22;9888;48.606;9.630;2023-04-07T00:25:09;4.50;99.90
19496;DHT22;9888;48.606;9.630;2023-04-07T00:27:36;4.50;99.90
19496;DHT22;9888;48.606;9.630;2023-04-07T00:30:03;4.40;99.90
19496;DHT22;9888;48.606;9.630;2023-04-07T00:32:31;4.50;99.90
19496;DHT22;9888;48.606;9.630;2023-04-07T00:34:58;4.40;99.90
19496;DHT22;9888;48.606;9.630;2023-04-07T00:37:25;4.50;99.90
19496;DHT22;9888;48.606;9.630;2023-04-07T00:39:52;4.40;99.90
19496;DHT22;9888;48.606;9.630;2023-04-07T00:42:19;4.40;99.90
19496;DHT22;9888;48.606;9.630;2023-04-07T00:44:46;4.40;99.90
19496;DHT22;9888;48.606;9.630;2023-04-07T00:47:12;4.40;99.90
19496;DHT22;9888;48.606;9.630;2023-04-07T00:49:40;4.30;99.90
19496;DHT22;9888;48.606;9.630;2023-04-07T00:52:07;4.40;99.90
19496;DHT22;9888;48.606;9.630;2023-04-07T00:54:57;4.30;99.90
19496;DHT22;9888;48.606;9.630;2023-04-07T00:57:25;4.30;99.90
19496;DHT22;9888;48.606;9.630;2023-04-07T00:59:54;4.30;99.90
19496;DHT22;9888;48.606;9.630;2023-04-07T01:05:41;4.30;99.90
19496;DHT22;9888;48.606;9.630;2023-04-07T01:08:37;4.30;99.90
19496;DHT22;9888;48.606;9.630;2023-04-07T01:11:24;4.30;99.90
19496;DHT22;9888;48.606;9.630;2023-04-07T01:13:52;4.30;99.90
19496;DHT22;9888;48.606;9.630;2023-04-07T01:16:34;4.30;99.90
19496;DHT22;9888;48.606;9.630;2023-04-07T01:22:02;4.30;99.90
19496;DHT22;9888;48.606;9.630;2023-04-07T01:30:34;4.30;99.90
19496;DHT22;9888;48.606;9.630;2023-04-07T01:33:04;4.30;99.90
19496;DHT22;9888;48.606;9.630;2023-04-07T01:35:33;4.30;99.90
19496;DHT22;9888;48.606;9.630;2023-04-07T01:38:02;4.30;99.90
19496;DHT22;9888;48.606;9.630;2023-04-07T01:40:32;4.30;99.90
19496;DHT22;9888;48.606;9.630;2023-04-07T01:43:02;4.30;99.90
19496;DHT22;9888;48.606;9.630;2023-04-07T01:45:33;4.30;99.90
19496;DHT22;9888;48.606;9.630;2023-04-07T01:48:03;4.20;99.90
19496;DHT22;9888;48.606;9.630;2023-04-07T01:50:32;4.30;99.90
19496;DHT22;9888;48.606;9.630;2023-04-07T01:53:00;4.20;99.90
19496;DHT22;9888;48.606;9.630;2023-04-07T01:55:28;4.30;99.90
19496;DHT22;9888;48.606;9.630;2023-04-07T01:57:56;4.30;99.90
19496;DHT22;9888;48.606;9.630;2023-04-07T02:00:23;4.30;99.90
19496;DHT22;9888;48.606;9.630;2023-04-07T02:02:56;4.30;99.90
19496;DHT22;9888;48.606;9.630;2023-04-07T02:05:24;4.30;99.90
19496;DHT22;9888;48.606;9.630;2023-04-07T02:08:05;4.30;99.90
19496;DHT22;9888;48.606;9.630;2023-04-07T02:10:36;4.20;99.90
19496;DHT22;9888;48.606;9.630;2023-04-07T02:13:08;4.30;99.90
19496;DHT22;9888;48.606;9.630;2023-04-07T02:15:37;4.30;99.90
19496;DHT22;9888;48.606;9.630;2023-04-07T02:18:05;4.30;99.90
19496;DHT22;9888;48.606;9.630;2023-04-07T02:20:36;4.30;99.90
19496;DHT22;9888;48.606;9.630;2023-04-07T02:23:03;4.30;99.90
19496;DHT22;9888;48.606;9.630;2023-04-07T02:25:31;4.30;99.90
19496;DHT22;9888;48.606;9.630;2023-04-07T02:27:59;4.30;99.90
19496;DHT22;9888;48.606;9.630;2023-04-07T02:30:26;4.30;99.90
19496;DHT22;9888;48.606;9.630;2023-04-07T02:32:53;4.30;99.90
19496;DHT22;9888;48.606;9.630;2023-04-07T02:35:20;4.40;99.90
19496;DHT22;9888;48.606;9.630;2023-04-07T02:37:48;4.30;99.90
19496;DHT22;9888;48.606;9.630;2023-04-07T02:40:16;4.30;99.90
19496;DHT22;9888;48.606;9.630;2023-04-07T02:42:44;4.30;99.90
19496;DHT22;9888;48.606;9.630;2023-04-07T02:45:11;4.30;99.90
19496;DHT22;9888;48.606;9.630;2023-04-07T02:47:40;4.30;99.90
19496;DHT22;9888;48.606;9.630;2023-04-07T02:50:08;4.30;99.90
19496;DHT22;9888;48.606;9.630;2023-04-07T02:52:35;4.30;99.90
19496;DHT22;9888;48.606;9.630;2023-04-07T02:55:03;4.30;99.90
19496;DHT22;9888;48.606;9.630;2023-04-07T02:57:29;4.30;99.90
19496;DHT22;9888;48.606;9.630;2023-04-07T02:59:56;4.30;99.90
19496;DHT22;9888;48.606;9.630;2023-04-07T03:02:24;4.30;99.90
19496;DHT22;9888;48.606;9.630;2023-04-07T03:04:51;4.30;99.90
19496;DHT22;9888;48.606;9.630;2023-04-07T03:07:18;4.40;99.90
19496;DHT22;9888;48.606;9.630;2023-04-07T03:09:45;4.40;99.90
19496;DHT22;9888;48.606;9.630;2023-04-07T03:12:12;4.40;99.90
19496;DHT22;9888;48.606;9.630;2023-04-07T03:14:40;4.40;99.90
19496;DHT22;9888;48.606;9.630;2023-04-07T03:17:07;4.40;99.90
19496;DHT22;9888;48.606;9.630;2023-04-07T03:19:35;4.50;99.90
19496;DHT22;9888;48.606;9.630;2023-04-07T03:22:02;4.40;99.90
19496;DHT22;9888;48.606;9.630;2023-04-07T03:24:29;4.40;99.90
19496;DHT22;9888;48.606;9.630;2023-04-07T03:26:56;4.50;99.90
19496;DHT22;9888;48.606;9.630;2023-04-07T03:29:23;4.40;99.90
19496;DHT22;9888;48.606;9.630;2023-04-07T03:31:51;4.40;99.90
19496;DHT22;9888;48.606;9.630;2023-04-07T03:34:18;4.40;99.90
19496;DHT22;9888;48.606;9.630;2023-04-07T03:36:45;4.40;99.90
19496;DHT22;9888;48.606;9.630;2023-04-07T03:39:12;4.40;99.90
19496;DHT22;9888;48.606;9.630;2023-04-07T03:41:39;4.40;99.90
19496;DHT22;9888;48.606;9.630;2023-04-07T03:44:06;4.40;99.90
19496;DHT22;9888;48.606;9.630;2023-04-07T03:46:33;4.40;99.90
19496;DHT22;9888;48.606;9.630;2023-04-07T03:49:00;4.40;99.90
19496;DHT22;9888;48.606;9.630;2023-04-07T03:51:27;4.40;99.90
19496;DHT22;9888;48.606;9.630;2023-04-07T03:53:56;4.40;99.90
19496;DHT22;9888;48.606;9.630;2023-04-07T03:56:23;4.40;99.90
19496;DHT22;9888;48.606;9.630;2023-04-07T03:58:50;4.40;99.90
19496;DHT22;9888;48.606;9.630;2023-04-07T04:01:17;4.40;99.90
19496;DHT22;9888;48.606;9.630;2023-04-07T04:03:48;4.50;99.90
19496;DHT22;9888;48.606;9.630;2023-04-07T04:06:16;4.50;99.90
19496;DHT22;9888;48.606;9.630;2023-04-07T04:08:45;4.50;99.90
19496;DHT22;9888;48.606;9.630;2023-04-07T04:11:13;4.50;99.90
19496;DHT22;9888;48.606;9.630;2023-04-07T04:13:40;4.50;99.90
19496;DHT22;9888;48.606;9.630;2023-04-07T04:16:07;4.50;99.90
19496;DHT22;9888;48.606;9.630;2023-04-07T04:18:35;4.50;99.90
19496;DHT22;9888;48.606;9.630;2023-04-07T04:21:02;4.50;99.90
19496;DHT22;9888;48.606;9.630;2023-04-07T04:23:29;4.60;99.90
19496;DHT22;9888;48.606;9.630;2023-04-07T04:25:56;4.70;99.90
19496;DHT22;9888;48.606;9.630;2023-04-07T04:28:25;4.70;99.90
19496;DHT22;9888;48.606;9.630;2023-04-07T04:30:52;4.60;99.90
19496;DHT22;9888;48.606;9.630;2023-04-07T04:33:19;4.60;99.90
19496;DHT22;9888;48.606;9.630;2023-04-07T04:35:45;4.60;99.90
19496;DHT22;9888;48.606;9.630;2023-04-07T04:38:13;4.60;99.90
19496;DHT22;9888;48.606;9.630;2023-04-07T04:40:39;4.60;99.90
19496;DHT22;9888;48.606;9.630;2023-04-07T04:43:07;4.50;99.90
19496;DHT22;9888;48.606;9.630;2023-04-07T04:45:34;4.50;99.90
19496;DHT22;9888;48.606;9.630;2023-04-07T04:48:02;4.50;99.90
19496;DHT22;9888;48.606;9.630;2023-04-07T04:50:29;4.60;99.90
19496;DHT22;9888;48.606;9.630;2023-04-07T04:52:57;4.60;99.90
19496;DHT22;9888;48.606;9.630;2023-04-07T04:55:24;4.60;99.90
19496;DHT22;9888;48.606;9.630;2023-04-07T04:57:51;4.60;99.90
19496;DHT22;9888;48.606;9.630;2023-04-07T05:00:18;4.60;99.90
19496;DHT22;9888;48.606;9.630;2023-04-07T05:02:47;4.50;99.90
19496;DHT22;9888;48.606;9.630;2023-04-07T05:05:14;4.40;99.90
19496;DHT22;9888;48.606;9.630;2023-04-07T05:07:41;4.40;99.90
19496;DHT22;9888;48.606;9.630;2023-04-07T05:10:14;4.40;99.90
19496;DHT22;9888;48.606;9.630;2023-04-07T05:12:42;4.40;99.90
19496;DHT22;9888;48.606;9.630;2023-04-07T05:15:10;4.40;99.90
19496;DHT22;9888;48.606;9.630;2023-04-07T05:17:37;4.30;99.90
19496;DHT22;9888;48.606;9.630;2023-04-07T05:20:04;4.30;99.90
19496;DHT22;9888;48.606;9.630;2023-04-07T05:22:33;4.30;99.90
19496;DHT22;9888;48.606;9.630;2023-04-07T05:25:01;4.30;99.90
19496;DHT22;9888;48.606;9.630;2023-04-07T05:27:29;4.30;99.90
19496;DHT22;9888;48.606;9.630;2023-04-07T05:29:56;4.30;99.90
19496;DHT22;9888;48.606;9.630;2023-04-07T05:32:26;4.30;99.90
19496;DHT22;9888;48.606;9.630;2023-04-07T05:34:53;4.30;99.90
19496;DHT22;9888;48.606;9.630;2023-04-07T05:37:20;4.40;99.90
19496;DHT22;9888;48.606;9.630;2023-04-07T05:39:48;4.40;99.90
19496;DHT22;9888;48.606;9.630;2023-04-07T05:42:16;4.40;99.90
19496;DHT22;9888;48.606;9.630;2023-04-07T05:44:43;4.40;99.90
19496;DHT22;9888;48.606;9.630;2023-04-07T05:47:11;4.40;99.90
19496;DHT22;9888;48.606;9.630;2023-04-07T05:49:40;4.40;99.90
19496;DHT22;9888;48.606;9.630;2023-04-07T05:52:12;4.50;99.90
19496;DHT22;9888;48.606;9.630;2023-04-07T05:54:40;4.60;99.90
19496;DHT22;9888;48.606;9.630;2023-04-07T05:57:07;4.70;99.90
19496;DHT22;9888;48.606;9.630;2023-04-07T05:59:35;4.70;99.90
19496;DHT22;9888;48.606;9.630;2023-04-07T06:02:04;4.80;99.90
19496;DHT22;9888;48.606;9.630;2023-04-07T06:04:37;4.80;99.90
19496;DHT22;9888;48.606;9.630;2023-04-07T06:07:05;4.90;99.90
19496;DHT22;9888;48.606;9.630;2023-04-07T06:09:32;4.90;99.90
19496;DHT22;9888;48.606;9.630;2023-04-07T06:11:59;4.90;99.90
19496;DHT22;9888;48.606;9.630;2023-04-07T06:14:27;4.90;99.90
19496;DHT22;9888;48.606;9.630;2023-04-07T06:16:54;4.90;99.90
19496;DHT22;9888;48.606;9.630;2023-04-07T06:19:21;5.00;99.90
19496;DHT22;9888;48.606;9.630;2023-04-07T06:21:49;5.10;99.90
19496;DHT22;9888;48.606;9.630;2023-04-07T06:24:17;5.10;99.90
19496;DHT22;9888;48.606;9.630;2023-04-07T06:26:51;5.20;99.90
19496;DHT22;9888;48.606;9.630;2023-04-07T06:29:19;5.30;99.90
19496;DHT22;9888;48.606;9.630;2023-04-07T06:31:47;5.40;99.90
19496;DHT22;9888;48.606;9.630;2023-04-07T06:34:19;5.50;99.90
19496;DHT22;9888;48.606;9.630;2023-04-07T06:36:48;5.60;99.90
19496;DHT22;9888;48.606;9.630;2023-04-07T06:39:16;5.60;99.90
19496;DHT22;9888;48.606;9.630;2023-04-07T06:41:45;5.60;99.90
19496;DHT22;9888;48.606;9.630;2023-04-07T06:44:13;5.60;99.90
19496;DHT22;9888;48.606;9.630;2023-04-07T06:46:41;5.70;99.90
19496;DHT22;9888;48.606;9.630;2023-04-07T06:49:10;5.80;99.90
19496;DHT22;9888;48.606;9.630;2023-04-07T06:51:37;5.80;99.90
19496;DHT22;9888;48.606;9.630;2023-04-07T06:54:04;5.90;99.90
19496;DHT22;9888;48.606;9.630;2023-04-07T06:56:33;6.00;99.90
19496;DHT22;9888;48.606;9.630;2023-04-07T06:59:00;6.10;99.90
19496;DHT22;9888;48.606;9.630;2023-04-07T07:01:29;6.20;99.90
19496;DHT22;9888;48.606;9.630;2023-04-07T07:03:57;6.20;99.90
19496;DHT22;9888;48.606;9.630;2023-04-07T07:06:26;6.30;99.90
19496;DHT22;9888;48.606;9.630;2023-04-07T07:08:54;6.40;99.90
19496;DHT22;9888;48.606;9.630;2023-04-07T07:11:22;6.40;99.90
19496;DHT22;9888;48.606;9.630;2023-04-07T07:13:50;6.50;99.90
19496;DHT22;9888;48.606;9.630;2023-04-07T07:16:18;6.70;99.90
19496;DHT22;9888;48.606;9.630;2023-04-07T07:18:48;6.90;99.90
19496;DHT22;9888;48.606;9.630;2023-04-07T07:21:18;7.10;99.90
19496;DHT22;9888;48.606;9.630;2023-04-07T07:23:46;7.30;99.90
19496;DHT22;9888;48.606;9.630;2023-04-07T07:26:13;7.50;99.90
19496;DHT22;9888;48.606;9.630;2023-04-07T07:28:41;7.60;99.90
19496;DHT22;9888;48.606;9.630;2023-04-07T07:31:10;7.70;99.90
19496;DHT22;9888;48.606;9.630;2023-04-07T07:33:40;7.90;99.90
19496;DHT22;9888;48.606;9.630;2023-04-07T07:36:11;8.00;99.90
19496;DHT22;9888;48.606;9.630;2023-04-07T07:38:41;8.10;99.90
19496;DHT22;9888;48.606;9.630;2023-04-07T07:41:10;8.10;99.90
19496;DHT22;9888;48.606;9.630;2023-04-07T07:43:50;8.20;99.90
19496;DHT22;9888;48.606;9.630;2023-04-07T07:46:36;8.20;99.90
19496;DHT22;9888;48.606;9.630;2023-04-07T07:49:08;8.20;99.90
19496;DHT22;9888;48.606;9.630;2023-04-07T07:51:45;8.20;99.90
19496;DHT22;9888;48.606;9.630;2023-04-07T07:54:24;8.30;99.90
19496;DHT22;9888;48.606;9.630;2023-04-07T07:56:52;8.60;99.90
19496;DHT22;9888;48.606;9.630;2023-04-07T07:59:22;8.90;99.90
19496;DHT22;9888;48.606;9.630;2023-04-07T08:01:51;9.20;99.90
19496;DHT22;9888;48.606;9.630;2023-04-07T08:04:19;9.50;99.90
19496;DHT22;9888;48.606;9.630;2023-04-07T08:06:50;9.90;99.90
19496;DHT22;9888;48.606;9.630;2023-04-07T08:09:23;10.10;99.90
19496;DHT22;9888;48.606;9.630;2023-04-07T08:11:53;10.20;99.90
19496;DHT22;9888;48.606;9.630;2023-04-07T08:14:25;10.20;99.90
19496;DHT22;9888;48.606;9.630;2023-04-07T08:16:54;10.30;99.90
19496;DHT22;9888;48.606;9.630;2023-04-07T08:19:24;10.10;99.90
19496;DHT22;9888;48.606;9.630;2023-04-07T08:21:57;10.20;99.90
19496;DHT22;9888;48.606;9.630;2023-04-07T08:24:27;10.50;99.90
19496;DHT22;9888;48.606;9.630;2023-04-07T08:30:19;11.00;99.90
19496;DHT22;9888;48.606;9.630;2023-04-07T08:32:54;11.30;99.90
19496;DHT22;9888;48.606;9.630;2023-04-07T08:35:25;11.30;99.90
19496;DHT22;9888;48.606;9.630;2023-04-07T08:37:54;10.40;99.90
19496;DHT22;9888;48.606;9.630;2023-04-07T08:40:26;10.80;99.90
19496;DHT22;9888;48.606;9.630;2023-04-07T08:43:07;12.00;99.90
19496;DHT22;9888;48.606;9.630;2023-04-07T08:45:42;13.20;99.90
19496;DHT22;9888;48.606;9.630;2023-04-07T08:48:29;14.60;99.90
19496;DHT22;9888;48.606;9.630;2023-04-07T08:51:10;14.30;99.90
19496;DHT22;9888;48.606;9.630;2023-04-07T08:54:16;13.20;99.90
19496;DHT22;9888;48.606;9.630;2023-04-07T09:00:22;12.60;99.90
19496;DHT22;9888;48.606;9.630;2023-04-07T09:03:01;13.80;99.90
19496;DHT22;9888;48.606;9.630;2023-04-07T09:05:34;14.80;99.90
19496;DHT22;9888;48.606;9.630;2023-04-07T09:08:04;15.90;99.90
19496;DHT22;9888;48.606;9.630;2023-04-07T09:10:35;16.20;99.90
19496;DHT22;9888;48.606;9.630;2023-04-07T09:13:07;16.20;99.90
19496;DHT22;9888;48.606;9.630;2023-04-07T09:15:46;15.90;99.90
19496;DHT22;9888;48.606;9.630;2023-04-07T09:18:16;15.10;99.90
19496;DHT22;9888;48.606;9.630;2023-04-07T09:21:02;14.30;99.90
19496;DHT22;9888;48.606;9.630;2023-04-07T09:27:11;13.20;99.90
19496;DHT22;9888;48.606;9.630;2023-04-07T09:29:42;13.10;99.90
19496;DHT22;9888;48.606;9.630;2023-04-07T09:32:38;13.20;99.90
19496;DHT22;9888;48.606;9.630;2023-04-07T09:38:44;14.10;99.90
19496;DHT22;9888;48.606;9.630;2023-04-07T09:41:27;14.40;99.90
19496;DHT22;9888;48.606;9.630;2023-04-07T09:43:57;13.90;99.90
19496;DHT22;9888;48.606;9.630;2023-04-07T09:53:55;12.10;99.90
19496;DHT22;9888;48.606;9.630;2023-04-07T09:56:46;11.90;99.90
19496;DHT22;9888;48.606;9.630;2023-04-07T09:59:25;12.00;99.90
19496;DHT22;9888;48.606;9.630;2023-04-07T10:06:07;12.40;99.90
19496;DHT22;9888;48.606;9.630;2023-04-07T10:08:51;12.40;99.90
19496;DHT22;9888;48.606;9.630;2023-04-07T10:15:20;12.00;99.90
19496;DHT22;9888;48.606;9.630;2023-04-07T11:25:28;13.00;99.90
19496;DHT22;9888;48.606;9.630;2023-04-07T11:28:04;12.90;99.90
19496;DHT22;9888;48.606;9.630;2023-04-07T11:30:56;12.90;99.90
19496;DHT22;9888;48.606;9.630;2023-04-07T11:33:31;12.70;99.90
19496;DHT22;9888;48.606;9.630;2023-04-07T11:36:07;12.40;99.90
19496;DHT22;9888;48.606;9.630;2023-04-07T11:38:55;12.70;99.90
19496;DHT22;9888;48.606;9.630;2023-04-07T11:41:32;12.70;99.90
19496;DHT22;9888;48.606;9.630;2023-04-07T11:44:15;12.80;99.90
19496;DHT22;9888;48.606;9.630;2023-04-07T11:46:56;12.80;99.90
19496;DHT22;9888;48.606;9.630;2023-04-07T11:49:47;12.90;99.90
19496;DHT22;9888;48.606;9.630;2023-04-07T11:55:26;12.70;99.90
19496;DHT22;9888;48.606;9.630;2023-04-07T11:58:29;12.50;99.90
19496;DHT22;9888;48.606;9.630;2023-04-07T12:01:08;12.50;99.90
19496;DHT22;9888;48.606;9.630;2023-04-07T12:04:01;12.50;99.90
19496;DHT22;9888;48.606;9.630;2023-04-07T12:06:40;12.40;99.90
19496;DHT22;9888;48.606;9.630;2023-04-07T12:09:32;12.40;99.90
19496;DHT22;9888;48.606;9.630;2023-04-07T12:12:07;12.40;99.90
19496;DHT22;9888;48.606;9.630;2023-04-07T12:14:39;12.20;99.90
19496;DHT22;9888;48.606;9.630;2023-04-07T12:17:23;12.30;99.90
19496;DHT22;9888;48.606;9.630;2023-04-07T12:19:59;12.30;99.90
19496;DHT22;9888;48.606;9.630;2023-04-07T12:22:31;12.20;99.90
19496;DHT22;9888;48.606;9.630;2023-04-07T12:25:02;12.20;99.90
19496;DHT22;9888;48.606;9.630;2023-04-07T12:27:37;12.20;99.90
19496;DHT22;9888;48.606;9.630;2023-04-07T12:30:10;12.10;99.90
19496;DHT22;9888;48.606;9.630;2023-04-07T12:32:40;12.10;99.90
19496;DHT22;9888;48.606;9.630;2023-04-07T12:35:14;12.00;99.90
19496;DHT22;9888;48.606;9.630;2023-04-07T12:37:42;12.00;99.90
19496;DHT22;9888;48.606;9.630;2023-04-07T12:40:15;12.00;99.90
19496;DHT22;9888;48.606;9.630;2023-04-07T12:42:44;12.00;99.90
19496;DHT22;9888;48.606;9.630;2023-04-07T12:45:13;12.10;99.90
19496;DHT22;9888;48.606;9.630;2023-04-07T12:47:41;12.20;99.90
19496;DHT22;9888;48.606;9.630;2023-04-07T12:50:10;12.40;99.90
19496;DHT22;9888;48.606;9.630;2023-04-07T12:52:38;12.50;99.90
19496;DHT22;9888;48.606;9.630;2023-04-07T12:55:07;12.60;99.90
19496;DHT22;9888;48.606;9.630;2023-04-07T12:58:03;12.60;99.90
19496;DHT22;9888;48.606;9.630;2023-04-07T13:00:32;12.40;99.90
19496;DHT22;9888;48.606;9.630;2023-04-07T13:03:04;12.30;99.90
19496;DHT22;9888;48.606;9.630;2023-04-07T13:05:32;12.20;99.90
19496;DHT22;9888;48.606;9.630;2023-04-07T13:08:00;12.30;99.90
19496;DHT22;9888;48.606;9.630;2023-04-07T13:10:27;12.30;99.90
19496;DHT22;9888;48.606;9.630;2023-04-07T13:12:55;12.30;99.90
19496;DHT22;9888;48.606;9.630;2023-04-07T13:15:43;12.30;99.90
19496;DHT22;9888;48.606;9.630;2023-04-07T13:18:13;12.30;99.90
19496;DHT22;9888;48.606;9.630;2023-04-07T13:24:03;12.00;99.90
19496;DHT22;9888;48.606;9.630;2023-04-07T13:26:32;12.10;99.90
19496;DHT22;9888;48.606;9.630;2023-04-07T13:29:00;12.20;99.90
19496;DHT22;9888;48.606;9.630;2023-04-07T13:31:27;12.20;99.90
19496;DHT22;9888;48.606;9.630;2023-04-07T13:33:56;12.40;99.90
19496;DHT22;9888;48.606;9.630;2023-04-07T13:36:24;12.50;99.90
19496;DHT22;9888;48.606;9.630;2023-04-07T13:38:53;12.50;99.90
19496;DHT22;9888;48.606;9.630;2023-04-07T13:41:22;12.60;99.90
19496;DHT22;9888;48.606;9.630;2023-04-07T13:43:51;12.70;99.90
19496;DHT22;9888;48.606;9.630;2023-04-07T13:46:19;12.70;99.90
19496;DHT22;9888;48.606;9.630;2023-04-07T13:48:48;12.40;99.90
19496;DHT22;9888;48.606;9.630;2023-04-07T13:51:18;12.30;99.90
19496;DHT22;9888;48.606;9.630;2023-04-07T13:53:47;12.30;99.90
19496;DHT22;9888;48.606;9.630;2023-04-07T13:56:15;12.50;99.90
19496;DHT22;9888;48.606;9.630;2023-04-07T13:59:08;12.80;99.90
19496;DHT22;9888;48.606;9.630;2023-04-07T14:01:39;13.30;99.90
19496;DHT22;9888;48.606;9.630;2023-04-07T14:04:07;13.50;99.90
19496;DHT22;9888;48.606;9.630;2023-04-07T14:06:37;13.50;99.90
19496;DHT22;9888;48.606;9.630;2023-04-07T14:09:08;13.30;99.90
19496;DHT22;9888;48.606;9.630;2023-04-07T14:11:38;12.50;99.90
19496;DHT22;9888;48.606;9.630;2023-04-07T14:14:05;11.90;99.90
19496;DHT22;9888;48.606;9.630;2023-04-07T14:16:33;11.60;99.90
19496;DHT22;9888;48.606;9.630;2023-04-07T14:19:01;11.20;99.90
19496;DHT22;9888;48.606;9.630;2023-04-07T14:21:32;11.00;99.90
19496;DHT22;9888;48.606;9.630;2023-04-07T14:24:16;10.80;99.90
19496;DHT22;9888;48.606;9.630;2023-04-07T14:26:45;10.80;99.90
19496;DHT22;9888;48.606;9.630;2023-04-07T14:29:30;10.40;99.90
19496;DHT22;9888;48.606;9.630;2023-04-07T14:32:05;9.80;99.90
19496;DHT22;9888;48.606;9.630;2023-04-07T14:34:36;9.60;99.90
19496;DHT22;9888;48.606;9.630;2023-04-07T14:37:04;9.50;99.90
19496;DHT22;9888;48.606;9.630;2023-04-07T14:39:32;9.40;99.90
19496;DHT22;9888;48.606;9.630;2023-04-07T14:42:14;9.40;99.90
19496;DHT22;9888;48.606;9.630;2023-04-07T14:44:42;9.50;99.90
19496;DHT22;9888;48.606;9.630;2023-04-07T14:47:26;9.60;99.90
19496;DHT22;9888;48.606;9.630;2023-04-07T14:49:55;9.50;99.90
19496;DHT22;9888;48.606;9.630;2023-04-07T14:52:29;9.60;99.90
19496;DHT22;9888;48.606;9.630;2023-04-07T14:54:58;9.70;99.90
19496;DHT22;9888;48.606;9.630;2023-04-07T14:57:26;9.80;99.90
19496;DHT22;9888;48.606;9.630;2023-04-07T14:59:53;9.80;99.90
19496;DHT22;9888;48.606;9.630;2023-04-07T15:02:20;10.00;99.90
19496;DHT22;9888;48.606;9.630;2023-04-07T15:04:49;10.30;99.90
19496;DHT22;9888;48.606;9.630;2023-04-07T15:07:16;10.50;99.90
19496;DHT22;9888;48.606;9.630;2023-04-07T15:09:46;10.70;99.90
19496;DHT22;9888;48.606;9.630;2023-04-07T15:12:21;10.80;99.90
19496;DHT22;9888;48.606;9.630;2023-04-07T15:14:54;10.80;99.90
19496;DHT22;9888;48.606;9.630;2023-04-07T15:17:22;10.80;99.90
19496;DHT22;9888;48.606;9.630;2023-04-07T15:19:50;10.70;99.90
19496;DHT22;9888;48.606;9.630;2023-04-07T15:22:18;10.90;99.90
19496;DHT22;9888;48.606;9.630;2023-04-07T15:24:46;10.90;99.90
19496;DHT22;9888;48.606;9.630;2023-04-07T15:27:15;10.60;99.90
19496;DHT22;9888;48.606;9.630;2023-04-07T15:30:07;10.60;99.90
19496;DHT22;9888;48.606;9.630;2023-04-07T15:32:35;10.80;99.90
19496;DHT22;9888;48.606;9.630;2023-04-07T15:35:04;11.00;99.90
19496;DHT22;9888;48.606;9.630;2023-04-07T15:37:33;10.90;99.90
19496;DHT22;9888;48.606;9.630;2023-04-07T15:40:01;10.90;99.90
19496;DHT22;9888;48.606;9.630;2023-04-07T15:42:30;10.80;99.90
19496;DHT22;9888;48.606;9.630;2023-04-07T15:45:01;10.80;99.90
19496;DHT22;9888;48.606;9.630;2023-04-07T15:47:31;10.70;99.90
19496;DHT22;9888;48.606;9.630;2023-04-07T15:49:58;10.60;99.90
19496;DHT22;9888;48.606;9.630;2023-04-07T15:52:28;10.30;99.90
19496;DHT22;9888;48.606;9.630;2023-04-07T15:54:58;10.10;99.90
19496;DHT22;9888;48.606;9.630;2023-04-07T15:57:35;10.00;99.90
19496;DHT22;9888;48.606;9.630;2023-04-07T16:00:04;9.90;99.90
19496;DHT22;9888;48.606;9.630;2023-04-07T16:05:49;9.90;99.90
19496;DHT22;9888;48.606;9.630;2023-04-07T16:08:17;9.90;99.90
19496;DHT22;9888;48.606;9.630;2023-04-07T16:10:44;9.90;99.90
19496;DHT22;9888;48.606;9.630;2023-04-07T16:13:16;9.80;99.90
19496;DHT22;9888;48.606;9.630;2023-04-07T16:15:43;9.80;99.90
19496;DHT22;9888;48.606;9.630;2023-04-07T16:18:12;9.90;99.90
19496;DHT22;9888;48.606;9.630;2023-04-07T16:20:39;9.90;99.90
19496;DHT22;9888;48.606;9.630;2023-04-07T16:23:09;10.00;99.90
19496;DHT22;9888;48.606;9.630;2023-04-07T16:25:49;10.00;99.90
19496;DHT22;9888;48.606;9.630;2023-04-07T16:28:16;10.00;99.90
19496;DHT22;9888;48.606;9.630;2023-04-07T16:30:46;10.00;99.90
19496;DHT22;9888;48.606;9.630;2023-04-07T16:33:16;9.90;99.90
19496;DHT22;9888;48.606;9.630;2023-04-07T16:35:44;9.90;99.90
19496;DHT22;9888;48.606;9.630;2023-04-07T16:38:13;10.00;99.90
19496;DHT22;9888;48.606;9.630;2023-04-07T16:40:51;10.00;99.90
19496;DHT22;9888;48.606;9.630;2023-04-07T16:43:21;10.10;99.90
19496;DHT22;9888;48.606;9.630;2023-04-07T16:45:50;10.10;99.90
19496;DHT22;9888;48.606;9.630;2023-04-07T16:48:18;10.10;99.90
19496;DHT22;9888;48.606;9.630;2023-04-07T16:50:45;10.10;99.90
19496;DHT22;9888;48.606;9.630;2023-04-07T16:53:13;10.10;99.90
19496;DHT22;9888;48.606;9.630;2023-04-07T16:55:43;10.20;99.90
19496;DHT22;9888;48.606;9.630;2023-04-07T16:58:11;10.10;99.90
19496;DHT22;9888;48.606;9.630;2023-04-07T17:00:38;10.10;99.90
19496;DHT22;9888;48.606;9.630;2023-04-07T17:03:05;10.00;99.90
19496;DHT22;9888;48.606;9.630;2023-04-07T17:05:33;9.80;99.90
19496;DHT22;9888;48.606;9.630;2023-04-07T17:08:05;9.70;99.90
19496;DHT22;9888;48.606;9.630;2023-04-07T17:10:34;9.60;99.90
19496;DHT22;9888;48.606;9.630;2023-04-07T17:13:19;9.60;99.90
19496;DHT22;9888;48.606;9.630;2023-04-07T17:15:48;9.50;99.90
19496;DHT22;9888;48.606;9.630;2023-04-07T17:18:31;9.40;99.90
19496;DHT22;9888;48.606;9.630;2023-04-07T17:20:59;9.30;99.90
19496;DHT22;9888;48.606;9.630;2023-04-07T17:23:30;9.20;99.90
19496;DHT22;9888;48.606;9.630;2023-04-07T17:25:59;9.10;99.90
19496;DHT22;9888;48.606;9.630;2023-04-07T17:28:27;9.00;99.90
19496;DHT22;9888;48.606;9.630;2023-04-07T17:30:55;9.00;99.90
19496;DHT22;9888;48.606;9.630;2023-04-07T22:12:32;6.00;99.90
19496;DHT22;9888;48.606;9.630;2023-04-07T22:15:00;6.10;99.90
19496;DHT22;9888;48.606;9.630;2023-04-07T22:17:27;6.00;99.90
19496;DHT22;9888;48.606;9.630;2023-04-07T22:20:02;6.10;99.90
19496;DHT22;9888;48.606;9.630;2023-04-07T22:22:30;6.10;99.90
19496;DHT22;9888;48.606;9.630;2023-04-07T22:25:00;6.10;99.90
19496;DHT22;9888;48.606;9.630;2023-04-07T22:27:27;6.00;99.90
19496;DHT22;9888;48.606;9.630;2023-04-07T22:29:54;6.00;99.90
19496;DHT22;9888;48.606;9.630;2023-04-07T22:32:22;6.00;99.90
19496;DHT22;9888;48.606;9.630;2023-04-07T22:34:49;5.90;99.90
19496;DHT22;9888;48.606;9.630;2023-04-07T22:37:17;5.90;99.90
19496;DHT22;9888;48.606;9.630;2023-04-07T22:39:45;5.90;99.90
19496;DHT22;9888;48.606;9.630;2023-04-07T22:42:13;5.90;99.90
19496;DHT22;9888;48.606;9.630;2023-04-07T22:44:43;5.90;99.90
19496;DHT22;9888;48.606;9.630;2023-04-07T22:47:11;5.80;99.90
19496;DHT22;9888;48.606;9.630;2023-04-07T22:49:40;5.80;99.90
19496;DHT22;9888;48.606;9.630;2023-04-07T22:52:14;5.90;99.90
19496;DHT22;9888;48.606;9.630;2023-04-07T22:54:41;5.90;99.90